createdAt,value
2018-10-06T00:00:16.183Z,11.80
2018-10-06T00:02:44.582Z,11.00
2018-10-06T00:05:12.799Z,11.20
2018-10-06T00:07:41.037Z,10.47
2018-10-06T00:10:09.222Z,10.40
2018-10-06T00:12:37.402Z,9.03
2018-10-06T00:15:05.574Z,8.77
2018-10-06T00:17:33.748Z,10.20
2018-10-06T00:20:01.921Z,11.53
2018-10-06T00:22:30.178Z,10.60
2018-10-06T00:24:58.419Z,9.80
2018-10-06T00:27:27.930Z,10.93
2018-10-06T00:29:57.879Z,11.10
2018-10-06T00:32:27.067Z,10.33
2018-10-06T00:34:55.306Z,10.67
2018-10-06T00:37:25.334Z,9.80
2018-10-06T00:39:53.541Z,10.20
2018-10-06T00:42:22.459Z,11.07
2018-10-06T00:44:50.649Z,8.20
2018-10-06T00:47:18.819Z,8.73
2018-10-06T00:49:47.624Z,10.83
2018-10-06T00:52:15.814Z,10.90
2018-10-06T00:54:43.970Z,9.93
2018-10-06T00:57:12.202Z,9.53
2018-10-06T00:59:41.718Z,10.03
2018-10-06T01:02:09.862Z,8.93
2018-10-06T01:04:38.022Z,9.17
2018-10-06T01:07:06.220Z,8.67
2018-10-06T01:09:34.507Z,10.40
2018-10-06T01:12:02.711Z,11.27
2018-10-06T01:14:30.890Z,11.67
2018-10-06T01:16:59.086Z,10.60
2018-10-06T01:19:27.425Z,8.83
2018-10-06T01:21:55.608Z,9.53
2018-10-06T01:24:23.895Z,9.00
2018-10-06T01:26:52.038Z,8.50
2018-10-06T01:29:20.246Z,10.10
2018-10-06T01:31:49.034Z,9.80
2018-10-06T01:37:09.438Z,9.67
2018-10-06T01:39:38.757Z,9.67
2018-10-06T01:42:06.986Z,9.33
2018-10-06T01:44:35.181Z,9.43
2018-10-06T01:47:03.402Z,10.73
2018-10-06T01:49:31.725Z,11.33
2018-10-06T01:51:59.960Z,10.90
2018-10-06T01:54:28.907Z,12.40
2018-10-06T01:56:57.095Z,11.73
2018-10-06T01:59:25.302Z,10.60
2018-10-06T02:01:53.538Z,11.40
2018-10-06T02:04:24.134Z,11.40
2018-10-06T02:06:52.913Z,11.87
2018-10-06T02:09:21.066Z,12.30
2018-10-06T02:11:49.262Z,14.07
2018-10-06T02:14:17.914Z,14.23
2018-10-06T02:16:46.597Z,13.97
2018-10-06T02:19:15.178Z,13.30
2018-10-06T02:21:43.382Z,10.20
2018-10-06T02:24:13.262Z,9.40
2018-10-06T02:26:42.278Z,10.13
2018-10-06T02:29:10.474Z,10.00
2018-10-06T02:31:38.663Z,10.50
2018-10-06T02:34:06.986Z,10.80
2018-10-06T02:36:35.918Z,9.20
2018-10-06T02:39:05.285Z,9.53
2018-10-06T02:41:34.342Z,10.30
2018-10-06T02:44:02.987Z,10.43
2018-10-06T02:46:31.183Z,9.90
2018-10-06T02:49:00.330Z,9.80
2018-10-06T02:51:28.522Z,10.20
2018-10-06T02:53:56.717Z,9.40
2018-10-06T02:56:25.415Z,8.80
2018-10-06T02:58:53.679Z,9.07
2018-10-06T03:01:21.846Z,9.37
2018-10-06T03:03:50.086Z,10.50
2018-10-06T03:06:18.266Z,11.13
2018-10-06T03:08:46.650Z,10.27
2018-10-06T03:11:14.985Z,10.50
2018-10-06T03:13:43.145Z,11.27
2018-10-06T03:16:11.375Z,9.80
2018-10-06T03:18:41.268Z,10.47
2018-10-06T03:21:09.450Z,11.80
2018-10-06T03:23:37.851Z,11.20
2018-10-06T03:26:06.137Z,10.37
2018-10-06T03:28:36.156Z,10.50
2018-10-06T03:31:04.711Z,9.77
2018-10-06T03:33:33.022Z,9.43
2018-10-06T03:36:01.330Z,9.03
2018-10-06T03:38:29.533Z,9.50
2018-10-06T03:40:57.758Z,9.27
2018-10-06T03:43:26.314Z,9.80
2018-10-06T03:45:54.517Z,9.70
2018-10-06T03:48:22.730Z,8.90
2018-10-06T03:50:51.789Z,9.37
2018-10-06T03:53:20.003Z,9.10
2018-10-06T03:55:48.194Z,10.53
2018-10-06T03:58:16.570Z,11.80
2018-10-06T04:00:44.913Z,10.50
2018-10-06T04:03:13.430Z,10.03
2018-10-06T04:05:42.130Z,10.67
2018-10-06T04:08:10.370Z,10.37
2018-10-06T04:10:38.559Z,9.40
2018-10-06T04:13:08.679Z,9.80
2018-10-06T04:15:37.409Z,10.27
2018-10-06T04:18:07.537Z,9.80
2018-10-06T04:20:35.746Z,8.70
2018-10-06T04:23:03.989Z,8.73
2018-10-06T04:25:32.154Z,8.03
2018-10-06T04:28:00.398Z,8.80
2018-10-06T04:30:28.615Z,8.83
2018-10-06T04:32:56.819Z,8.87
2018-10-06T04:35:31.414Z,9.87
2018-10-06T04:37:59.830Z,9.57
2018-10-06T04:40:28.054Z,9.37
2018-10-06T04:42:56.226Z,8.17
2018-10-06T04:45:24.402Z,9.40
2018-10-06T04:47:52.615Z,9.40
2018-10-06T04:50:20.802Z,10.47
2018-10-06T04:52:53.899Z,9.90
2018-10-06T04:55:22.071Z,9.23
2018-10-06T04:57:50.351Z,8.33
2018-10-06T05:00:18.748Z,8.77
2018-10-06T05:02:46.870Z,9.23
2018-10-06T05:05:15.953Z,9.03
2018-10-06T05:07:44.163Z,8.17
2018-10-06T05:10:12.336Z,9.43
2018-10-06T05:12:45.426Z,9.20
2018-10-06T05:15:13.649Z,8.40
2018-10-06T05:17:41.863Z,8.90
2018-10-06T05:20:10.269Z,8.70
2018-10-06T05:22:38.646Z,8.63
2018-10-06T05:25:07.213Z,8.77
2018-10-06T05:27:35.423Z,9.23
2018-10-06T05:30:03.666Z,10.00
2018-10-06T05:32:31.856Z,10.23
2018-10-06T05:35:00.039Z,10.10
2018-10-06T05:37:28.261Z,11.50
2018-10-06T05:39:56.463Z,10.83
2018-10-06T05:42:24.688Z,10.60
2018-10-06T05:44:52.911Z,10.13
2018-10-06T05:47:21.058Z,10.13
2018-10-06T05:49:49.250Z,10.60
2018-10-06T05:52:17.426Z,11.83
2018-10-06T05:54:45.638Z,11.13
2018-10-06T05:57:13.990Z,11.27
2018-10-06T05:59:43.608Z,10.90
2018-10-06T06:02:11.837Z,11.47
2018-10-06T06:04:40.024Z,11.37
2018-10-06T06:07:08.475Z,11.53
2018-10-06T06:09:36.743Z,11.57
2018-10-06T06:12:04.971Z,11.60
2018-10-06T06:14:33.147Z,10.80
2018-10-06T06:17:01.546Z,11.87
2018-10-06T06:19:29.980Z,11.03
2018-10-06T06:21:58.189Z,11.47
2018-10-06T06:24:26.359Z,12.40
2018-10-06T06:26:55.142Z,10.17
2018-10-06T06:29:23.864Z,12.30
2018-10-06T06:31:52.036Z,13.17
2018-10-06T06:34:20.246Z,12.23
2018-10-06T06:36:48.875Z,9.50
2018-10-06T06:39:17.094Z,9.40
2018-10-06T06:41:45.361Z,10.47
2018-10-06T06:44:13.662Z,10.13
2018-10-06T06:46:41.778Z,8.50
2018-10-06T06:49:09.971Z,9.87
2018-10-06T06:51:38.302Z,8.33
2018-10-06T06:54:06.655Z,7.30
2018-10-06T06:56:34.871Z,7.27
2018-10-06T06:59:03.874Z,7.00
2018-10-06T07:01:32.074Z,7.13
2018-10-06T07:04:00.414Z,7.30
2018-10-06T07:06:28.621Z,7.03
2018-10-06T07:08:56.767Z,6.33
2018-10-06T07:11:25.245Z,6.60
2018-10-06T07:13:53.424Z,6.40
2018-10-06T07:16:21.955Z,5.87
2018-10-06T07:18:50.132Z,5.70
2018-10-06T07:21:19.886Z,6.40
2018-10-06T07:23:48.397Z,6.60
2018-10-06T07:26:16.575Z,6.17
2018-10-06T07:28:45.690Z,5.90
2018-10-06T07:31:14.093Z,6.80
2018-10-06T07:33:42.717Z,6.10
2018-10-06T07:36:11.210Z,6.22
2018-10-06T07:38:39.427Z,6.78
2018-10-06T07:41:07.619Z,7.15
2018-10-06T07:43:35.803Z,7.17
2018-10-06T07:46:06.062Z,6.40
2018-10-06T07:48:34.310Z,6.62
2018-10-06T07:51:02.549Z,7.83
2018-10-06T07:53:30.754Z,7.70
2018-10-06T07:55:58.922Z,8.08
2018-10-06T07:58:27.172Z,8.73
2018-10-06T08:00:55.979Z,8.88
2018-10-06T08:03:24.199Z,8.73
2018-10-06T08:05:52.659Z,9.75
2018-10-06T08:08:20.858Z,10.23
2018-10-06T08:10:49.067Z,10.60
2018-10-06T08:13:17.250Z,9.78
2018-10-06T08:15:45.459Z,10.03
2018-10-06T08:18:13.669Z,10.40
2018-10-06T08:20:41.918Z,10.00
2018-10-06T08:23:10.126Z,9.65
2018-10-06T08:25:38.334Z,9.58
2018-10-06T08:28:06.514Z,10.63
2018-10-06T08:30:35.363Z,9.48
2018-10-06T08:33:03.506Z,9.63
2018-10-06T08:35:31.855Z,10.05
2018-10-06T08:38:00.446Z,10.82
2018-10-06T08:40:29.638Z,10.50
2018-10-06T08:42:57.844Z,10.75
2018-10-06T08:45:26.010Z,11.05
2018-10-06T08:47:54.260Z,11.00
2018-10-06T08:50:22.641Z,10.80
2018-10-06T08:52:51.449Z,10.28
2018-10-06T08:55:19.674Z,10.68
2018-10-06T08:57:47.983Z,11.15
2018-10-06T09:00:16.330Z,11.30
2018-10-06T09:02:45.350Z,9.65
2018-10-06T09:05:13.614Z,11.55
2018-10-06T09:07:41.854Z,10.25
2018-10-06T09:10:11.215Z,9.05
2018-10-06T09:12:39.394Z,9.55
2018-10-06T09:15:08.198Z,10.23
2018-10-06T09:17:36.433Z,9.58
2018-10-06T09:20:04.607Z,8.83
2018-10-06T09:22:32.837Z,9.13
2018-10-06T09:25:01.738Z,10.13
2018-10-06T09:27:29.950Z,8.70
2018-10-06T09:29:58.140Z,9.25
2018-10-06T09:32:26.779Z,9.10
2018-10-06T09:34:54.985Z,9.45
2018-10-06T09:37:23.186Z,9.45
2018-10-06T09:39:51.398Z,9.40
2018-10-06T09:42:21.513Z,9.55
2018-10-06T09:44:49.803Z,9.65
2018-10-06T09:47:18.002Z,10.25
2018-10-06T09:49:46.194Z,10.53
2018-10-06T09:52:14.386Z,10.72
2018-10-06T09:54:44.495Z,10.65
2018-10-06T09:57:12.682Z,9.93
2018-10-06T09:59:40.857Z,10.20
2018-10-06T10:02:14.493Z,10.78
2018-10-06T10:04:42.646Z,9.90
2018-10-06T10:07:12.764Z,9.30
2018-10-06T10:09:40.989Z,10.82
2018-10-06T10:12:09.188Z,11.22
2018-10-06T10:14:37.729Z,9.98
2018-10-06T10:17:06.000Z,9.70
2018-10-06T10:19:34.717Z,10.08
2018-10-06T10:22:03.227Z,8.58
2018-10-06T10:24:31.670Z,9.93
2018-10-06T10:26:59.883Z,8.83
2018-10-06T10:29:28.455Z,9.78
2018-10-06T10:31:56.642Z,9.18
2018-10-06T10:34:25.599Z,8.68
2018-10-06T10:36:53.778Z,8.88
2018-10-06T10:39:23.930Z,9.20
2018-10-06T10:41:52.668Z,8.60
2018-10-06T10:44:20.867Z,7.10
2018-10-06T10:46:49.817Z,7.20
2018-10-06T10:49:18.339Z,6.33
2018-10-06T10:51:46.471Z,6.08
2018-10-06T10:54:15.262Z,7.17
2018-10-06T10:56:43.491Z,5.47
2018-10-06T10:59:11.683Z,5.17
2018-10-06T11:01:39.905Z,6.85
2018-10-06T11:04:08.394Z,15.93
2018-10-06T11:06:37.306Z,6.40
2018-10-06T11:09:06.646Z,4.12
2018-10-06T11:11:34.823Z,4.72
2018-10-06T11:14:03.150Z,5.33
2018-10-06T11:16:31.362Z,5.70
2018-10-06T11:18:59.966Z,4.75
2018-10-06T11:21:29.272Z,4.72
2018-10-06T11:23:57.559Z,4.67
2018-10-06T11:26:25.766Z,4.03
2018-10-06T11:28:54.006Z,4.37
2018-10-06T11:31:22.271Z,4.75
2018-10-06T11:33:50.494Z,3.95
2018-10-06T11:36:20.571Z,4.30
2018-10-06T11:38:49.386Z,4.50
2018-10-06T11:41:17.598Z,5.28
2018-10-06T11:43:45.798Z,4.95
2018-10-06T11:46:14.006Z,4.65
2018-10-06T11:48:42.221Z,4.90
2018-10-06T11:51:10.359Z,4.47
2018-10-06T11:53:38.541Z,4.35
2018-10-06T11:56:07.006Z,4.72
2018-10-06T11:58:35.217Z,4.45
2018-10-06T12:01:03.417Z,4.33
2018-10-06T12:03:31.871Z,4.42
2018-10-06T12:06:00.246Z,4.60
2018-10-06T12:08:28.463Z,4.35
2018-10-06T12:10:56.697Z,4.40
2018-10-06T12:13:24.918Z,4.80
2018-10-06T12:15:53.110Z,4.70
2018-10-06T12:18:21.694Z,5.08
2018-10-06T12:20:49.902Z,4.92
2018-10-06T12:23:18.114Z,4.50
2018-10-06T12:25:46.329Z,3.45
2018-10-06T12:28:14.515Z,3.52
2018-10-06T12:30:44.138Z,3.83
2018-10-06T12:33:12.376Z,3.75
2018-10-06T12:35:40.673Z,3.67
2018-10-06T12:38:08.799Z,3.20
2018-10-06T12:40:37.184Z,3.45
2018-10-06T12:43:05.938Z,3.15
2018-10-06T12:45:34.154Z,2.90
2018-10-06T12:48:02.679Z,3.40
2018-10-06T12:50:30.954Z,3.00
2018-10-06T12:52:59.131Z,3.20
2018-10-06T12:55:27.594Z,3.27
2018-10-06T12:57:55.778Z,3.50
2018-10-06T13:00:23.988Z,2.72
2018-10-06T13:02:52.232Z,3.30
2018-10-06T13:05:20.447Z,3.20
2018-10-06T13:07:48.703Z,3.50
2018-10-06T13:10:16.914Z,2.98
2018-10-06T13:12:45.219Z,2.90
2018-10-06T13:15:15.217Z,2.95
2018-10-06T13:17:43.414Z,3.10
2018-10-06T13:20:11.686Z,3.45
2018-10-06T13:22:39.862Z,3.20
2018-10-06T13:25:08.070Z,3.10
2018-10-06T13:27:36.281Z,3.25
2018-10-06T13:30:04.666Z,3.08
2018-10-06T13:32:32.837Z,2.90
2018-10-06T13:35:01.270Z,2.87
2018-10-06T13:37:29.528Z,3.15
2018-10-06T13:39:57.756Z,3.12
2018-10-06T13:42:25.933Z,3.50
2018-10-06T13:44:54.190Z,3.10
2018-10-06T13:47:22.329Z,2.92
2018-10-06T13:49:50.548Z,3.00
2018-10-06T13:52:18.722Z,3.30
2018-10-06T13:54:46.926Z,3.17
2018-10-06T13:57:15.365Z,2.80
2018-10-06T13:59:43.558Z,3.05
2018-10-06T14:02:12.122Z,2.90
2018-10-06T14:04:40.902Z,3.22
2018-10-06T14:07:09.126Z,3.02
2018-10-06T14:09:37.352Z,2.95
2018-10-06T14:12:05.794Z,3.20
2018-10-06T14:14:34.682Z,3.75
2018-10-06T14:17:03.278Z,3.50
2018-10-06T14:19:31.466Z,3.17
2018-10-06T14:21:59.666Z,3.20
2018-10-06T14:24:27.982Z,3.50
2018-10-06T14:26:56.158Z,3.10
2018-10-06T14:29:24.513Z,3.20
2018-10-06T14:31:52.710Z,3.85
2018-10-06T14:34:21.287Z,2.98
2018-10-06T14:36:49.568Z,3.50
2018-10-06T14:39:18.458Z,3.40
2018-10-06T14:41:46.685Z,3.40
2018-10-06T14:44:14.927Z,3.50
2018-10-06T14:46:43.543Z,3.12
2018-10-06T14:49:11.989Z,3.17
2018-10-06T14:51:40.192Z,2.72
2018-10-06T14:54:08.379Z,2.70
2018-10-06T14:56:36.614Z,2.80
2018-10-06T14:59:04.870Z,2.92
2018-10-06T15:01:33.642Z,2.92
2018-10-06T15:04:03.738Z,2.92
2018-10-06T15:06:31.986Z,3.20
2018-10-06T15:09:00.422Z,2.87
2018-10-06T15:11:28.970Z,2.65
2018-10-06T15:13:57.172Z,3.22
2018-10-06T15:16:25.694Z,2.90
2018-10-06T15:18:53.909Z,3.10
2018-10-06T15:21:22.793Z,2.77
2018-10-06T15:23:50.976Z,3.12
2018-10-06T15:26:19.168Z,3.30
2018-10-06T15:28:47.909Z,3.05
2018-10-06T15:31:16.250Z,3.05
2018-10-06T15:33:44.839Z,3.08
2018-10-06T15:36:13.202Z,2.92
2018-10-06T15:38:41.394Z,2.87
2018-10-06T15:41:09.594Z,2.90
2018-10-06T15:43:37.810Z,2.80
2018-10-06T15:46:05.994Z,2.90
2018-10-06T15:48:34.146Z,3.15
2018-10-06T15:51:02.521Z,3.20
2018-10-06T15:53:30.723Z,2.92
2018-10-06T15:55:58.958Z,4.05
2018-10-06T15:58:27.136Z,3.92
2018-10-06T16:00:55.290Z,4.25
2018-10-06T16:03:23.690Z,3.90
2018-10-06T16:05:51.903Z,3.60
2018-10-06T16:08:20.111Z,3.40
2018-10-06T16:10:48.265Z,3.70
2018-10-06T16:13:16.471Z,3.90
2018-10-06T16:15:45.161Z,4.28
2018-10-06T16:18:13.842Z,3.55
2018-10-06T16:20:41.995Z,4.10
2018-10-06T16:23:10.747Z,4.20
2018-10-06T16:25:41.422Z,4.00
2018-10-06T16:28:10.038Z,4.20
2018-10-06T16:30:39.626Z,3.70
2018-10-06T16:33:07.870Z,3.90
2018-10-06T16:35:36.199Z,3.58
2018-10-06T16:38:04.416Z,3.20
2018-10-06T16:40:32.606Z,3.83
2018-10-06T16:43:01.150Z,3.40
2018-10-06T16:45:29.335Z,3.40
2018-10-06T16:47:57.647Z,4.03
2018-10-06T16:50:29.332Z,3.77
2018-10-06T16:52:58.045Z,3.40
2018-10-06T16:55:26.226Z,3.98
2018-10-06T16:57:54.446Z,3.45
2018-10-06T17:00:22.687Z,3.30
2018-10-06T17:02:50.867Z,3.98
2018-10-06T17:05:19.775Z,3.67
2018-10-06T17:07:49.560Z,3.30
2018-10-06T17:10:17.674Z,3.47
2018-10-06T17:12:45.927Z,3.72
2018-10-06T17:15:14.088Z,2.98
2018-10-06T17:17:42.515Z,3.72
2018-10-06T17:20:10.703Z,3.08
2018-10-06T17:22:39.798Z,3.67
2018-10-06T17:25:08.086Z,2.83
2018-10-06T17:27:36.214Z,3.00
2018-10-06T17:30:04.616Z,4.10
2018-10-06T17:32:33.707Z,4.70
2018-10-06T17:35:02.234Z,8.60
2018-10-06T17:37:31.952Z,4.20
2018-10-06T17:40:07.122Z,4.20
2018-10-06T17:42:35.262Z,4.40
2018-10-06T17:45:03.458Z,4.20
2018-10-06T17:47:31.658Z,3.47
2018-10-06T17:50:00.027Z,4.37
2018-10-06T17:52:34.849Z,4.47
2018-10-06T17:55:03.971Z,3.40
2018-10-06T17:57:32.198Z,2.60
2018-10-06T18:00:00.398Z,2.90
2018-10-06T18:02:29.196Z,3.13
2018-10-06T18:04:57.450Z,3.37
2018-10-06T18:07:25.530Z,5.30
2018-10-06T18:09:53.926Z,5.00
2018-10-06T18:12:22.146Z,3.97
2018-10-06T18:14:50.371Z,3.20
2018-10-06T18:17:20.151Z,3.30
2018-10-06T18:19:50.062Z,2.80
2018-10-06T18:22:18.239Z,3.07
2018-10-06T18:24:46.456Z,3.37
2018-10-06T18:27:20.694Z,2.77
2018-10-06T18:29:49.186Z,3.20
2018-10-06T18:32:17.342Z,2.93
2018-10-06T18:34:45.661Z,2.63
2018-10-06T18:37:14.635Z,2.80
2018-10-06T18:39:42.743Z,2.80
2018-10-06T18:42:10.922Z,2.63
2018-10-06T18:44:39.142Z,3.30
2018-10-06T18:47:16.848Z,3.03
2018-10-06T18:49:45.040Z,3.10
2018-10-06T18:52:13.229Z,3.87
2018-10-06T18:54:41.382Z,3.23
2018-10-06T18:57:09.570Z,3.50
2018-10-06T18:59:37.797Z,4.07
2018-10-06T19:02:05.991Z,4.27
2018-10-06T19:04:34.205Z,3.80
2018-10-06T19:07:02.482Z,3.80
2018-10-06T19:09:30.976Z,4.20
2018-10-06T19:11:59.262Z,4.20
2018-10-06T19:14:27.645Z,4.30
2018-10-06T19:16:55.835Z,4.00
2018-10-06T19:19:24.385Z,4.80
2018-10-06T19:21:52.569Z,4.70
2018-10-06T19:24:22.142Z,3.70
2018-10-06T19:26:50.574Z,4.20
2018-10-06T19:29:18.823Z,3.93
2018-10-06T19:31:47.169Z,4.00
2018-10-06T19:34:15.442Z,4.27
2018-10-06T19:36:44.086Z,4.07
2018-10-06T19:39:12.290Z,4.07
2018-10-06T19:41:41.110Z,4.10
2018-10-06T19:44:09.352Z,4.30
2018-10-06T19:46:37.538Z,4.93
2018-10-06T19:49:05.873Z,4.50
2018-10-06T19:51:34.145Z,4.17
2018-10-06T19:54:02.321Z,5.30
2018-10-06T19:56:30.820Z,5.43
2018-10-06T19:58:59.068Z,5.40
2018-10-06T20:01:27.242Z,4.30
2018-10-06T20:03:55.487Z,4.93
2018-10-06T20:06:24.210Z,4.90
2018-10-06T20:08:52.398Z,4.63
2018-10-06T20:11:20.598Z,5.20
2018-10-06T20:13:48.762Z,4.13
2018-10-06T20:16:16.958Z,4.67
2018-10-06T20:18:45.162Z,4.90
2018-10-06T20:21:13.353Z,4.37
2018-10-06T20:23:41.522Z,4.53
2018-10-06T20:26:09.682Z,4.50
2018-10-06T20:28:37.878Z,4.70
2018-10-06T20:31:06.211Z,4.60
2018-10-06T20:33:34.406Z,4.67
2018-10-06T20:36:02.730Z,4.90
2018-10-06T20:38:30.989Z,4.07
2018-10-06T20:40:59.254Z,4.07
2018-10-06T20:43:30.844Z,4.97
2018-10-06T20:45:59.665Z,4.47
2018-10-06T20:48:27.868Z,4.60
2018-10-06T20:50:56.043Z,5.60
2018-10-06T20:53:24.290Z,6.30
2018-10-06T20:55:52.466Z,7.23
2018-10-06T20:58:20.651Z,6.27
2018-10-06T21:00:48.830Z,7.03
2018-10-06T21:03:17.038Z,7.33
2018-10-06T21:05:45.987Z,7.23
2018-10-06T21:08:14.190Z,7.10
2018-10-06T21:10:42.402Z,7.57
2018-10-06T21:13:10.542Z,7.57
2018-10-06T21:15:38.735Z,8.27
2018-10-06T21:18:06.918Z,7.53
2018-10-06T21:20:35.422Z,8.13
2018-10-06T21:23:03.678Z,7.90
2018-10-06T21:25:32.217Z,7.60
2018-10-06T21:28:01.829Z,7.70
2018-10-06T21:30:30.012Z,7.70
2018-10-06T21:32:58.196Z,7.37
2018-10-06T21:35:26.790Z,7.87
2018-10-06T21:37:55.043Z,7.37
2018-10-06T21:40:23.207Z,7.73
2018-10-06T21:42:51.386Z,7.03
2018-10-06T21:45:19.591Z,7.97
2018-10-06T21:47:47.762Z,7.13
2018-10-06T21:50:16.107Z,7.90
2018-10-06T21:52:44.531Z,7.40
2018-10-06T21:55:13.434Z,8.73
2018-10-06T21:57:41.714Z,8.57
2018-10-06T22:00:09.884Z,9.40
2018-10-06T22:02:38.090Z,9.07
2018-10-06T22:05:06.370Z,7.70
2018-10-06T22:07:34.517Z,7.50
2018-10-06T22:10:02.733Z,7.07
2018-10-06T22:12:30.930Z,7.10
2018-10-06T22:14:59.686Z,7.57
2018-10-06T22:17:28.379Z,7.63
2018-10-06T22:19:56.558Z,8.33
2018-10-06T22:22:24.746Z,9.53
2018-10-06T22:24:52.958Z,9.17
2018-10-06T22:27:21.150Z,8.40
2018-10-06T22:29:50.603Z,9.23
2018-10-06T22:32:18.819Z,9.00
2018-10-06T22:34:47.077Z,9.13
2018-10-06T22:37:16.280Z,8.47
2018-10-06T22:39:44.600Z,8.70
2018-10-06T22:42:12.791Z,9.37
2018-10-06T22:44:41.162Z,9.50
2018-10-06T22:47:09.393Z,8.50
2018-10-06T22:49:37.554Z,9.13
2018-10-06T22:52:05.804Z,8.43
2018-10-06T22:54:34.006Z,9.23
2018-10-06T22:57:02.586Z,9.73
2018-10-06T22:59:30.934Z,9.27
2018-10-06T23:01:59.160Z,9.90
2018-10-06T23:04:27.794Z,9.27
2018-10-06T23:06:55.966Z,9.17
2018-10-06T23:09:24.174Z,10.17
2018-10-06T23:11:58.451Z,9.53
2018-10-06T23:14:27.030Z,9.90
2018-10-06T23:16:55.187Z,9.60
2018-10-06T23:19:23.360Z,8.80
2018-10-06T23:21:51.685Z,9.37
2018-10-06T23:24:19.858Z,8.93
2018-10-06T23:26:48.059Z,8.80
2018-10-06T23:29:16.506Z,8.47
2018-10-06T23:31:45.079Z,9.50
2018-10-06T23:34:13.286Z,9.00
2018-10-06T23:36:41.485Z,9.07
2018-10-06T23:39:09.642Z,9.30
2018-10-06T23:41:38.046Z,9.67
2018-10-06T23:44:06.254Z,10.07
2018-10-06T23:46:34.462Z,10.47
2018-10-06T23:49:02.674Z,10.37
2018-10-06T23:51:30.841Z,10.53
2018-10-06T23:53:59.061Z,10.83
2018-10-06T23:56:27.271Z,9.53
2018-10-06T23:58:55.680Z,8.97
